Time;durP1;ratioP1;P1;durP2;ratioP2;P2;SDS_P1;SDS_P2;PMS_P1;PMS_P2;Temp;Humidity;BMP_temperature;BMP_pressure;BME280_temperature;BME280_humidity;BME280_pressure;Samples;Min_cycle;Max_cycle;Signal;HPM_P1;HPM_P2
2022/08/22 00:01:20;;;;;;;;;7.67;6.00;;;;;23.34;83.25;101195.00;5037023;28;45385;-72
2022/08/22 00:04:18;;;;;;;;;5.00;3.00;;;;;23.29;83.45;101193.41;5032474;28;46478;-72
2022/08/22 00:07:08;;;;;;;;;5.00;4.00;;;;;23.26;83.75;101189.88;5035308;28;45273;-71
2022/08/22 00:09:52;;;;;;;;;4.67;4.00;;;;;23.23;83.83;101197.19;5036636;28;45356;-71
2022/08/22 00:12:49;;;;;;;;;8.00;4.00;;;;;23.17;83.40;101186.63;5030015;28;45297;-72
2022/08/22 00:15:24;;;;;;;;;4.33;3.33;;;;;23.08;83.83;101171.69;5034939;28;46337;-72
2022/08/22 00:18:30;;;;;;;;;5.00;5.00;;;;;23.12;83.63;101177.84;5019713;28;45478;-72
2022/08/22 00:21:16;;;;;;;;;5.00;5.00;;;;;23.12;83.78;101167.94;5029258;28;45511;-71
2022/08/22 00:24:02;;;;;;;;;5.67;4.00;;;;;23.12;83.16;101159.00;5027952;28;45529;-71
2022/08/22 00:27:11;;;;;;;;;4.67;3.00;;;;;23.09;83.28;101162.66;5027829;28;46399;-72
2022/08/22 00:29:46;;;;;;;;;8.33;3.33;;;;;23.06;83.04;101168.13;4947419;28;45568;-71
2022/08/22 00:32:23;;;;;;;;;6.00;5.00;;;;;22.96;83.07;101146.06;5027385;28;45328;-72
2022/08/22 00:35:11;;;;;;;;;5.00;5.00;;;;;22.98;82.96;101159.47;5036057;28;46140;-71
2022/08/22 00:37:44;;;;;;;;;5.00;4.00;;;;;22.93;83.05;101148.84;5034903;28;47522;-71
2022/08/22 00:40:40;;;;;;;;;5.67;4.00;;;;;22.96;83.24;101164.03;5034269;28;45318;-72
2022/08/22 00:43:38;;;;;;;;;3.00;3.00;;;;;22.94;83.20;101171.28;5031438;28;45553;-71
2022/08/22 00:46:16;;;;;;;;;3.33;3.33;;;;;22.93;83.28;101174.91;5030859;28;45253;-72
2022/08/22 00:49:07;;;;;;;;;5.00;4.00;;;;;22.91;83.00;101169.59;5035437;28;47421;-72
2022/08/22 00:51:40;;;;;;;;;4.67;4.33;;;;;22.93;83.03;101180.28;5035367;28;45514;-71
2022/08/22 00:54:27;;;;;;;;;5.00;5.00;;;;;22.93;82.61;101175.78;5035137;28;45420;-72
2022/08/22 00:57:44;;;;;;;;;5.33;4.00;;;;;22.95;82.36;101179.28;5036167;28;45535;-72
2022/08/22 01:00:15;;;;;;;;;2.67;2.00;;;;;22.90;81.87;101162.41;4977606;28;46492;-72
2022/08/22 01:03:01;;;;;;;;;3.67;3.67;;;;;22.92;81.57;101174.03;4993016;28;45533;-72
2022/08/22 01:05:52;;;;;;;;;5.33;4.00;;;;;22.92;81.93;101181.22;5020038;28;45601;-72
2022/08/22 01:08:37;;;;;;;;;6.67;4.00;;;;;22.89;81.95;101184.00;5033071;28;45450;-71
2022/08/22 01:11:17;;;;;;;;;4.00;4.00;;;;;22.88;82.03;101182.25;5029470;28;47563;-71
2022/08/22 01:14:12;;;;;;;;;5.00;4.00;;;;;22.87;82.08;101185.84;5034100;28;45430;-72
2022/08/22 01:17:15;;;;;;;;;5.67;4.00;;;;;22.84;81.87;101184.13;4981460;28;45599;-72
2022/08/22 01:20:07;;;;;;;;;4.00;4.00;;;;;22.81;81.57;101180.69;5035532;28;45769;-72
2022/08/22 01:22:45;;;;;;;;;5.33;3.00;;;;;22.76;81.74;101172.75;5035709;28;47368;-72
2022/08/22 01:25:29;;;;;;;;;5.00;3.00;;;;;22.72;81.86;101173.78;5037110;28;45381;-71
2022/08/22 01:28:12;;;;;;;;;7.00;4.00;;;;;22.68;82.12;101181.09;5038783;28;45471;-71
2022/08/22 01:30:45;;;;;;;;;4.67;4.67;;;;;22.65;82.24;101169.56;5038663;28;45471;-72
2022/08/22 01:33:33;;;;;;;;;5.00;5.00;;;;;22.62;82.13;101164.25;5036872;28;46365;-71
2022/08/22 01:36:24;;;;;;;;;5.00;5.00;;;;;22.60;82.26;101152.69;5037325;28;45342;-72
2022/08/22 01:39:09;;;;;;;;;7.00;4.00;;;;;22.52;82.54;101144.84;4998423;28;45452;-71
2022/08/22 01:41:46;;;;;;;;;5.33;4.00;;;;;22.51;82.50;101152.97;5033122;28;45498;-72
2022/08/22 01:44:42;;;;;;;;;6.00;4.33;;;;;22.51;82.60;101153.84;5038505;28;47448;-71
2022/08/22 01:47:18;;;;;;;;;5.00;4.00;;;;;22.45;82.55;101140.59;5036699;28;45382;-71
2022/08/22 01:50:08;;;;;;;;;4.67;3.67;;;;;22.42;82.70;101146.09;5038482;28;45456;-72
2022/08/22 01:52:41;;;;;;;;;4.33;4.00;;;;;22.43;82.73;101146.06;5037426;28;45701;-71
2022/08/22 01:55:29;;;;;;;;;5.67;2.33;;;;;22.40;82.90;101159.59;5024353;28;46557;-71
2022/08/22 01:58:15;;;;;;;;;7.67;3.33;;;;;22.36;82.71;101149.84;5031419;28;45478;-72
2022/08/22 02:01:13;;;;;;;;;6.00;3.00;;;;;22.32;82.76;101158.06;5035271;28;45508;-71
2022/08/22 02:03:50;;;;;;;;;5.00;5.00;;;;;22.27;82.66;101157.38;5037836;28;45569;-71
2022/08/22 02:06:44;;;;;;;;;5.67;4.00;;;;;22.17;82.75;101149.59;5038444;28;46311;-71
2022/08/22 02:09:25;;;;;;;;;5.33;4.00;;;;;22.13;82.83;101149.72;5019045;28;45512;-72
2022/08/22 02:11:57;;;;;;;;;4.00;4.00;;;;;22.14;83.00;101159.56;5033766;28;45444;-71
2022/08/22 02:14:32;;;;;;;;;4.00;4.00;;;;;22.12;82.94;101166.81;5036923;28;45469;-72
2022/08/22 02:17:26;;;;;;;;;6.33;4.00;;;;;22.09;83.30;101156.09;5037946;28;47330;-71
2022/08/22 02:20:04;;;;;;;;;3.67;2.00;;;;;22.06;83.10;101149.03;5037677;28;45467;-71
2022/08/22 02:22:40;;;;;;;;;4.00;4.00;;;;;21.95;83.54;101146.66;5038343;28;45445;-72
2022/08/22 02:25:31;;;;;;;;;5.67;4.00;;;;;21.98;83.39;101145.66;5037043;28;45461;-71
2022/08/22 02:28:02;;;;;;;;;4.00;4.00;;;;;22.03;83.28;101159.84;5036253;28;47424;-71
2022/08/22 02:30:51;;;;;;;;;4.67;4.00;;;;;22.03;83.59;101154.47;5038160;28;45318;-72
2022/08/22 02:33:40;;;;;;;;;5.33;3.33;;;;;21.97;83.08;101136.72;5035678;28;46086;-71
2022/08/22 02:36:33;;;;;;;;;4.00;4.00;;;;;22.01;83.24;101153.66;5037510;28;45733;-71
2022/08/22 02:39:12;;;;;;;;;6.00;4.00;;;;;22.01;83.29;101150.09;5036426;28;47547;-72
2022/08/22 02:41:52;;;;;;;;;6.33;3.33;;;;;22.01;83.33;101160.84;5036925;28;47513;-72
2022/08/22 02:44:31;;;;;;;;;4.33;3.67;;;;;22.00;83.23;101169.81;5037957;28;45409;-71
2022/08/22 02:47:06;;;;;;;;;2.67;2.67;;;;;21.93;83.57;101148.50;5034734;28;45516;-71
2022/08/22 02:49:51;;;;;;;;;4.33;4.33;;;;;21.96;83.20;101148.41;5037564;28;47426;-71
2022/08/22 02:52:23;;;;;;;;;4.67;3.00;;;;;21.89;83.21;101145.94;5036201;28;45495;-72
2022/08/22 02:55:18;;;;;;;;;6.00;3.00;;;;;21.92;83.68;101149.44;5036410;28;45266;-71
2022/08/22 02:57:51;;;;;;;;;5.00;3.00;;;;;21.91;83.28;101149.50;5033675;28;45603;-72
2022/08/22 03:00:26;;;;;;;;;2.33;2.33;;;;;21.87;83.29;101154.06;5036723;28;47578;-72
2022/08/22 03:02:51;;;;;;;;;4.00;2.67;;;;;21.89;82.99;101149.53;5037227;28;45309;-72
2022/08/22 03:05:51;;;;;;;;;6.00;3.33;;;;;21.84;83.50;101143.44;5037529;28;45350;-71
2022/08/22 03:08:26;;;;;;;;;3.67;2.00;;;;;21.89;83.68;101152.22;5037849;28;45426;-72
2022/08/22 03:11:10;;;;;;;;;3.00;3.00;;;;;21.88;83.57;101152.25;5037649;28;47543;-72
2022/08/22 03:13:54;;;;;;;;;4.00;2.67;;;;;21.83;83.42;101141.63;5036942;28;45484;-71
2022/08/22 03:16:53;;;;;;;;;2.33;2.00;;;;;21.86;83.30;101148.75;5036210;28;45290;-72
2022/08/22 03:19:30;;;;;;;;;4.00;4.00;;;;;21.80;83.34;101144.44;5037276;28;45947;-71
2022/08/22 03:22:01;;;;;;;;;3.67;3.00;;;;;21.84;83.82;101156.88;5035760;28;47610;-72
2022/08/22 03:24:47;;;;;;;;;3.00;3.00;;;;;21.85;83.79;101157.75;5035565;28;45334;-72
2022/08/22 03:27:35;;;;;;;;;6.00;4.00;;;;;21.83;83.60;101154.22;5036046;28;45413;-72
2022/08/22 03:30:05;;;;;;;;;4.00;3.00;;;;;21.83;83.79;101154.22;5036060;28;45585;-71
2022/08/22 03:32:54;;;;;;;;;4.33;3.00;;;;;21.81;83.92;101154.25;5035311;28;46492;-72
2022/08/22 03:35:52;;;;;;;;;4.00;3.00;;;;;21.81;84.27;101150.69;5043658;28;46149;-71
2022/08/22 03:38:40;;;;;;;;;4.00;3.00;;;;;21.80;84.22;101154.31;5024469;28;45386;-72
2022/08/22 03:41:11;;;;;;;;;2.33;2.33;;;;;21.79;84.32;101149.88;5035418;28;45541;-71
2022/08/22 03:44:07;;;;;;;;;6.00;4.33;;;;;21.77;84.65;101138.28;5035980;28;46390;-72
2022/08/22 03:47:06;;;;;;;;;2.00;2.00;;;;;21.74;84.42;101141.94;5032624;28;45497;-71
2022/08/22 03:49:55;;;;;;;;;2.33;2.33;;;;;21.72;84.90;101151.84;5028174;28;45393;-71
2022/08/22 03:53:05;;;;;;;;;4.00;4.00;;;;;21.69;84.87;101141.19;5030417;28;45556;-72
2022/08/22 03:55:25;;;;;;;;;4.00;3.00;;;;;21.67;84.73;101137.66;5029483;28;45249;-72
2022/08/22 03:58:29;;;;;;;;;3.67;3.00;;;;;21.65;85.34;101131.47;5036257;28;45273;-72
2022/08/22 04:01:25;;;;;;;;;5.00;4.67;;;;;21.64;85.35;101135.09;5014928;28;45450;-72
2022/08/22 04:03:53;;;;;;;;;4.67;4.67;;;;;21.63;85.45;101131.53;5035834;28;45574;-71
2022/08/22 04:06:30;;;;;;;;;4.00;3.00;;;;;21.61;85.73;101125.28;5035798;28;46642;-71
2022/08/22 04:09:27;;;;;;;;;4.33;3.67;;;;;21.60;85.81;101128.03;5036368;28;45242;-71
2022/08/22 04:11:59;;;;;;;;;4.00;4.00;;;;;21.59;85.87;101121.78;5027717;28;45310;-71
2022/08/22 04:14:53;;;;;;;;;6.33;5.00;;;;;21.57;86.32;101120.97;5036135;28;45579;-71
2022/08/22 04:17:53;;;;;;;;;4.00;4.00;;;;;21.57;86.32;101122.72;5035176;28;47510;-71
2022/08/22 04:20:43;;;;;;;;;4.00;4.00;;;;;21.55;86.47;101129.97;5035847;28;45528;-72
2022/08/22 04:23:25;;;;;;;;;5.00;3.67;;;;;21.47;86.90;101119.47;5018240;28;45246;-71
2022/08/22 04:25:56;;;;;;;;;4.00;4.00;;;;;21.51;86.96;101125.59;5035777;28;45513;-71
2022/08/22 04:28:29;;;;;;;;;7.33;5.67;;;;;21.50;87.16;101115.78;5021187;28;47016;-71
2022/08/22 04:30:57;;;;;;;;;6.67;4.00;;;;;21.50;87.46;101121.16;5034922;28;45369;-72
2022/08/22 04:33:32;;;;;;;;;7.67;5.00;;;;;21.48;87.21;101129.28;5032041;28;45458;-72
2022/08/22 04:36:22;;;;;;;;;4.00;4.00;;;;;21.45;87.85;101124.88;5030429;28;45646;-72
2022/08/22 04:38:59;;;;;;;;;6.00;4.67;;;;;21.41;87.64;101122.31;5020549;28;47546;-72
2022/08/22 04:41:41;;;;;;;;;9.00;5.00;;;;;21.41;88.09;101120.53;5035345;28;45305;-74
2022/08/22 04:44:19;;;;;;;;;6.67;3.67;;;;;21.32;88.45;101104.66;5034279;28;45422;-72
2022/08/22 04:46:51;;;;;;;;;4.00;4.00;;;;;21.35;89.10;101117.13;5034299;28;45626;-74
2022/08/22 04:49:40;;;;;;;;;4.33;4.33;;;;;21.39;88.83;101129.53;5034592;28;47547;-72
2022/08/22 04:52:14;;;;;;;;;5.67;4.33;;;;;21.37;88.86;101137.66;5028394;28;45267;-72
2022/08/22 04:55:13;;;;;;;;;6.33;5.00;;;;;21.39;89.13;101148.34;5033738;28;45502;-74
2022/08/22 04:57:44;;;;;;;;;4.00;4.00;;;;;21.40;89.20;101148.28;5032668;28;45565;-72
2022/08/22 05:00:10;;;;;;;;;6.00;4.67;;;;;21.36;89.26;101141.28;5035261;28;46487;-71
2022/08/22 05:02:39;;;;;;;;;6.67;5.00;;;;;21.36;89.18;101141.28;5034734;28;45440;-72
2022/08/22 05:05:10;;;;;;;;;4.00;4.00;;;;;21.36;89.58;101141.28;5026695;28;45369;-72
2022/08/22 05:07:39;;;;;;;;;7.33;5.67;;;;;21.33;89.70;101141.34;5035696;28;45235;-72
2022/08/22 05:10:27;;;;;;;;;5.33;3.00;;;;;21.39;89.51;101173.41;5035056;28;47276;-72
2022/08/22 05:12:56;;;;;;;;;3.00;3.00;;;;;21.39;89.36;101175.22;5018990;28;45329;-72
2022/08/22 05:15:26;;;;;;;;;4.00;3.00;;;;;21.39;88.80;101165.34;5035709;28;45411;-73
2022/08/22 05:17:53;;;;;;;;;6.33;4.00;;;;;21.37;88.54;101156.47;5033191;28;45291;-72
2022/08/22 05:20:23;;;;;;;;;7.00;5.00;;;;;21.33;88.88;101157.47;5028863;28;47743;-73
2022/08/22 05:22:56;;;;;;;;;6.00;4.00;;;;;21.35;89.19;101160.09;5033119;28;45593;-69
2022/08/22 05:25:27;;;;;;;;;5.00;4.33;;;;;21.28;89.38;101155.81;5032326;28;45557;-71
2022/08/22 05:28:03;;;;;;;;;4.00;3.33;;;;;21.16;89.68;101157.03;5034412;28;45465;-69
2022/08/22 05:30:30;;;;;;;;;9.33;4.00;;;;;21.08;89.46;101176.00;5033560;28;45399;-70
2022/08/22 05:32:58;;;;;;;;;4.67;4.00;;;;;21.00;90.05;101179.84;5033393;28;57174;-69
2022/08/22 05:35:33;;;;;;;;;4.33;4.33;;;;;20.93;90.83;101182.69;5034068;28;46307;-69
2022/08/22 05:37:59;;;;;;;;;4.00;2.67;;;;;20.92;91.00;101185.41;5031888;28;45450;-69
2022/08/22 05:40:28;;;;;;;;;5.33;5.00;;;;;20.86;90.97;101180.19;5048537;28;45713;-69
2022/08/22 05:42:55;;;;;;;;;6.00;5.00;;;;;20.89;90.80;101189.06;5032346;28;45418;-69
2022/08/22 05:45:21;;;;;;;;;10.00;4.00;;;;;20.87;90.92;101190.00;5032868;28;45550;-69
2022/08/22 05:47:50;;;;;;;;;5.33;5.33;;;;;20.82;91.53;101186.56;5030791;28;50591;-70
2022/08/22 05:50:20;;;;;;;;;6.67;5.67;;;;;20.79;91.17;101187.53;5030173;28;47744;-71
2022/08/22 05:53:14;;;;;;;;;6.33;6.33;;;;;20.74;92.42;101184.09;5029956;28;45480;-69
2022/08/22 05:56:01;;;;;;;;;6.67;6.00;;;;;20.63;92.69;101175.44;5033383;28;46462;-72
2022/08/22 05:58:42;;;;;;;;;11.00;6.00;;;;;20.67;92.89;101193.22;5033072;28;45662;-69
2022/08/22 06:01:22;;;;;;;;;8.00;7.00;;;;;20.63;93.53;101187.03;5030230;28;46524;-71
2022/08/22 06:03:50;;;;;;;;;9.33;5.67;;;;;20.69;93.31;101195.84;5032642;28;45318;-68
2022/08/22 06:06:17;;;;;;;;;8.67;6.00;;;;;20.72;93.67;101191.31;5033150;28;45577;-70
2022/08/22 06:08:49;;;;;;;;;9.33;5.00;;;;;20.73;93.69;101198.44;5035924;28;45475;-69
2022/08/22 06:11:19;;;;;;;;;6.00;6.00;;;;;20.69;93.95;101195.84;5035782;28;46707;-70
2022/08/22 06:13:57;;;;;;;;;3.00;3.00;;;;;20.57;93.95;101175.59;5032634;28;45508;-70
2022/08/22 06:16:42;;;;;;;;;6.67;6.33;;;;;20.74;94.47;101189.44;5034759;28;45484;-70
2022/08/22 06:19:08;;;;;;;;;6.33;5.00;;;;;20.74;94.07;101184.09;5035838;28;45606;-70
2022/08/22 06:21:37;;;;;;;;;12.67;6.00;;;;;20.74;94.34;101183.22;5034568;28;65667;-70
2022/08/22 06:24:08;;;;;;;;;6.00;5.00;;;;;20.75;95.27;101183.16;5030747;28;45464;-70
2022/08/22 06:26:42;;;;;;;;;9.00;5.00;;;;;20.76;95.12;101195.66;5032047;28;45549;-70
2022/08/22 06:29:08;;;;;;;;;8.33;4.67;;;;;20.82;94.79;101197.28;5035357;28;45548;-74
2022/08/22 06:31:41;;;;;;;;;6.00;6.00;;;;;20.82;95.14;101203.53;5025984;28;46483;-72
2022/08/22 06:34:15;;;;;;;;;6.67;6.00;;;;;20.81;95.25;101201.78;5035586;28;45473;-71
2022/08/22 06:36:44;;;;;;;;;5.00;5.00;;;;;20.88;95.08;101208.78;5036038;28;45434;-73
2022/08/22 06:39:17;;;;;;;;;5.00;5.00;;;;;20.98;95.28;101200.47;5035027;28;45674;-75
2022/08/22 06:41:56;;;;;;;;;4.00;3.67;;;;;21.05;94.95;101191.34;5035087;28;46511;-73
2022/08/22 06:44:25;;;;;;;;;5.67;4.67;;;;;21.19;95.02;101198.09;5033368;28;46283;-75
2022/08/22 06:46:53;;;;;;;;;7.67;4.67;;;;;21.26;94.43;101198.81;5035484;28;45551;-74
2022/08/22 06:49:21;;;;;;;;;6.00;4.67;;;;;21.45;94.88;101196.53;5035812;28;45587;-71
2022/08/22 06:51:48;;;;;;;;;5.00;5.00;;;;;21.53;94.30;101175.72;5034742;28;45859;-72
2022/08/22 06:54:17;;;;;;;;;8.33;6.00;;;;;21.67;93.76;101178.84;5035360;28;45330;-72
2022/08/22 06:56:45;;;;;;;;;7.00;4.33;;;;;21.77;94.25;101187.53;5035763;28;45369;-74
2022/08/22 06:59:18;;;;;;;;;5.33;4.00;;;;;21.85;93.94;101181.94;5035485;28;45271;-73
2022/08/22 07:01:46;;;;;;;;;6.33;4.00;;;;;21.91;93.90;101184.44;5035944;28;45683;-71
2022/08/22 07:04:12;;;;;;;;;7.33;5.00;;;;;21.95;93.44;101178.94;5034695;28;45514;-72
2022/08/22 07:06:42;;;;;;;;;5.33;5.33;;;;;22.08;93.40;101205.44;5035883;28;45346;-72
2022/08/22 07:09:19;;;;;;;;;7.67;5.00;;;;;22.13;92.86;101208.91;5034873;28;45303;-75
2022/08/22 07:11:44;;;;;;;;;5.33;5.00;;;;;22.12;92.90;101201.75;5035900;28;46432;-75
2022/08/22 07:14:13;;;;;;;;;7.00;4.00;;;;;22.13;92.96;101208.91;5034908;28;65368;-72
2022/08/22 07:16:48;;;;;;;;;5.67;4.00;;;;;22.17;92.76;101207.88;5035112;28;45372;-71
2022/08/22 07:19:27;;;;;;;;;5.00;5.00;;;;;22.18;92.42;101217.72;5036576;28;45474;-73
2022/08/22 07:21:54;;;;;;;;;5.00;5.00;;;;;22.19;92.53;101216.78;5035438;28;47135;-71
2022/08/22 07:24:23;;;;;;;;;10.00;5.00;;;;;22.18;92.53;101221.28;5035480;28;45629;-72
2022/08/22 07:26:54;;;;;;;;;5.00;5.00;;;;;22.21;92.40;101222.97;5168538;22;45604;-71
2022/08/22 07:29:29;;;;;;;;;5.67;4.00;;;;;22.19;92.03;101220.34;5064765;28;45529;-71
2022/08/22 07:32:19;;;;;;;;;4.33;2.00;;;;;22.20;92.11;101227.47;5073773;28;46449;-75
2022/08/22 07:34:47;;;;;;;;;6.33;4.00;;;;;22.22;91.84;101228.34;5049274;28;45424;-73
2022/08/22 07:37:41;;;;;;;;;9.33;6.00;;;;;22.24;91.60;101225.59;5064829;28;45596;-75
2022/08/22 07:40:24;;;;;;;;;4.67;4.33;;;;;22.30;91.43;101225.38;5065606;28;45357;-72
2022/08/22 07:42:58;;;;;;;;;7.33;4.00;;;;;22.36;90.84;101222.50;5050766;28;46611;-73
2022/08/22 07:45:42;;;;;;;;;4.00;3.00;;;;;22.39;90.80;101219.72;5058680;28;45624;-72
2022/08/22 07:48:28;;;;;;;;;3.67;3.67;;;;;22.43;90.98;101225.91;5048459;28;45600;-72
2022/08/22 07:51:01;;;;;;;;;6.00;5.00;;;;;22.47;90.75;101228.41;5058452;28;45548;-73
2022/08/22 07:53:59;;;;;;;;;5.00;3.00;;;;;22.54;90.51;101225.56;5065662;28;45571;-70
2022/08/22 07:56:35;;;;;;;;;7.67;5.00;;;;;22.54;90.43;101221.06;5050065;28;45670;-71
2022/08/22 07:59:07;;;;;;;;;8.67;5.67;;;;;22.59;89.78;101210.16;5062530;27;46028;-73
2022/08/22 08:01:33;;;;;;;;;5.33;5.33;;;;;22.61;89.98;101206.44;5068962;28;45649;-73
2022/08/22 08:04:01;;;;;;;;;9.00;5.33;;;;;22.69;89.63;101216.94;5069192;27;69114;-72
2022/08/22 08:06:27;;;;;;;;;8.67;6.33;;;;;22.66;89.47;101206.31;5052925;28;45621;-73
2022/08/22 08:08:54;;;;;;;;;10.00;6.00;;;;;22.63;89.54;101201.88;5055542;28;45412;-71
2022/08/22 08:11:22;;;;;;;;;9.67;6.00;;;;;22.70;89.55;101216.06;5043783;28;45570;-73
2022/08/22 08:13:53;;;;;;;;;5.67;5.67;;;;;22.69;89.13;101215.16;5065352;28;47980;-73
2022/08/22 08:16:22;;;;;;;;;6.67;5.00;;;;;22.80;89.17;101239.03;5057609;28;45509;-74
2022/08/22 08:18:50;;;;;;;;;5.00;5.00;;;;;22.82;88.85;101237.16;5061884;28;45467;-73
2022/08/22 08:21:30;;;;;;;;;5.00;4.00;;;;;22.88;88.84;101233.44;5049161;28;45619;-74
2022/08/22 08:23:57;;;;;;;;;6.00;5.00;;;;;22.89;88.62;101229.78;5046474;28;45942;-72
2022/08/22 08:28:32;;;;;;;;;5.67;3.33;;;;;22.86;88.68;101232.56;5030290;28;45518;-72
2022/08/22 08:29:25;;;;;;;;;5.33;4.67;;;;;22.92;88.62;101229.72;5064365;28;45574;-73
2022/08/22 08:31:51;;;;;;;;;5.33;5.33;;;;;22.93;88.70;101229.63;5063103;28;45631;-73
2022/08/22 08:34:21;;;;;;;;;6.67;5.00;;;;;22.92;88.70;101224.31;5061609;28;45949;-72
2022/08/22 08:36:54;;;;;;;;;10.33;6.00;;;;;22.84;88.39;101216.44;5059017;28;45514;-74
2022/08/22 08:39:43;;;;;;;;;4.00;4.00;;;;;22.85;88.51;101215.53;5050612;28;45555;-72
2022/08/22 08:42:30;;;;;;;;;7.00;4.00;;;;;22.84;88.60;101219.13;5052492;28;45551;-76
2022/08/22 08:45:05;;;;;;;;;4.33;4.33;;;;;22.85;89.00;101217.31;5069013;28;45477;-74
2022/08/22 08:47:41;;;;;;;;;6.00;3.67;;;;;22.87;89.47;101215.47;5062582;28;45474;-75
2022/08/22 08:50:35;;;;;;;;;7.00;6.00;;;;;22.91;89.25;101219.88;5064626;28;45605;-70
2022/08/22 08:53:24;;;;;;;;;4.00;2.00;;;;;22.90;89.34;101199.22;5046659;28;45473;-73
2022/08/22 08:56:11;;;;;;;;;4.00;4.00;;;;;22.90;88.97;101192.03;5061960;28;46950;-72
2022/08/22 08:58:48;;;;;;;;;6.67;6.00;;;;;22.94;89.19;101182.91;5061109;28;45383;-74
2022/08/22 09:01:43;;;;;;;;;7.00;5.00;;;;;22.96;88.81;101197.22;5047762;28;45673;-72
2022/08/22 09:04:27;;;;;;;;;11.00;6.00;;;;;22.97;88.84;101190.03;5063739;28;45444;-73
2022/08/22 09:07:24;;;;;;;;;8.67;5.00;;;;;22.98;88.32;101194.47;5060245;27;47575;-74
2022/08/22 09:10:17;;;;;;;;;7.33;4.00;;;;;22.97;87.76;101181.94;5051854;28;46101;-73
2022/08/22 09:12:49;;;;;;;;;5.00;5.00;;;;;23.01;88.02;101183.63;5053517;28;45530;-73
2022/08/22 09:15:14;;;;;;;;;3.67;3.67;;;;;23.05;88.13;101193.31;5061683;28;45453;-74
2022/08/22 09:18:16;;;;;;;;;4.00;4.00;;;;;23.09;88.21;101181.50;5068278;28;47283;-74
2022/08/22 09:20:45;;;;;;;;;5.00;5.00;;;;;23.16;87.68;101187.56;4985281;28;45589;-76
2022/08/22 09:23:29;;;;;;;;;4.00;3.00;;;;;23.21;87.08;101178.38;5055120;28;45525;-73
2022/08/22 09:26:14;;;;;;;;;3.00;3.00;;;;;23.23;86.52;101187.31;5065368;28;45486;-74
2022/08/22 09:28:58;;;;;;;;;8.00;3.00;;;;;23.26;86.05;101184.47;5019407;28;46875;-73
2022/08/22 09:31:40;;;;;;;;;7.67;4.33;;;;;23.32;85.99;101187.88;5025732;28;45609;-73
2022/08/22 09:34:28;;;;;;;;;5.33;5.00;;;;;23.37;85.64;101183.22;5024223;28;45476;-71
2022/08/22 09:37:35;;;;;;;;;6.00;6.00;;;;;23.43;85.38;101182.97;5029906;28;45468;-75
2022/08/22 09:40:34;;;;;;;;;8.00;4.67;;;;;23.49;85.71;101174.69;4991631;28;45856;-74
2022/08/22 09:43:09;;;;;;;;;4.00;4.00;;;;;23.55;85.27;101169.06;5026293;28;45531;-77
2022/08/22 09:45:39;;;;;;;;;7.00;5.67;;;;;23.59;85.08;101157.22;5023617;28;45532;-76
2022/08/22 09:48:22;;;;;;;;;2.33;2.00;;;;;23.62;84.31;101149.03;5025559;28;45664;-73
2022/08/22 09:51:17;;;;;;;;;4.67;3.00;;;;;23.60;84.78;101148.22;5024359;28;46083;-72
2022/08/22 09:53:53;;;;;;;;;2.00;2.00;;;;;23.75;83.46;101161.13;5021901;28;45359;-72
2022/08/22 09:56:22;;;;;;;;;5.67;3.00;;;;;23.77;84.06;101153.88;5030461;28;45553;-74
2022/08/22 09:59:04;;;;;;;;;4.00;3.00;;;;;23.86;83.78;101155.31;5024003;28;46039;-75
2022/08/22 10:01:38;;;;;;;;;4.00;3.00;;;;;23.89;82.74;101157.91;5019065;28;46560;-74
2022/08/22 10:04:13;;;;;;;;;3.67;2.67;;;;;23.92;81.68;101163.19;5028411;28;45524;-75
2022/08/22 10:07:10;;;;;;;;;2.67;2.67;;;;;23.95;81.80;101164.88;5026806;28;45806;-74
2022/08/22 10:09:53;;;;;;;;;5.00;3.67;;;;;23.92;81.22;101163.19;5020122;28;45719;-73
2022/08/22 10:12:26;;;;;;;;;2.00;2.00;;;;;23.95;81.40;101157.66;5019566;28;46807;-75
2022/08/22 10:15:15;;;;;;;;;3.33;3.00;;;;;23.97;80.89;101163.88;5031877;28;45435;-75
2022/08/22 10:18:04;;;;;;;;;7.67;3.67;;;;;23.98;80.87;101151.28;5032674;28;45338;-74
2022/08/22 10:20:35;;;;;;;;;3.33;2.00;;;;;24.10;81.90;101158.00;5029291;28;45464;-74
2022/08/22 10:23:16;;;;;;;;;3.00;3.00;;;;;24.16;81.38;101161.31;5041686;28;45787;-74
2022/08/22 10:25:49;;;;;;;;;3.33;3.00;;;;;24.24;82.37;101166.41;5027985;28;45365;-73
2022/08/22 10:28:30;;;;;;;;;4.00;2.00;;;;;24.32;82.82;101153.47;5048882;28;45416;-74
2022/08/22 10:31:23;;;;;;;;;3.67;3.67;;;;;24.38;80.62;101161.34;5048779;28;45682;-72
2022/08/22 10:33:59;;;;;;;;;3.00;3.00;;;;;24.41;80.36;101150.44;5040155;28;45868;-73
2022/08/22 10:36:53;;;;;;;;;4.00;4.00;;;;;24.44;79.60;101155.69;5047218;28;45474;-75
2022/08/22 10:39:24;;;;;;;;;2.67;2.67;;;;;24.48;78.96;101151.06;5026162;28;45515;-73
2022/08/22 10:42:39;;;;;;;;;6.00;3.00;;;;;24.53;78.93;101149.91;5064171;28;45519;-75
2022/08/22 10:45:30;;;;;;;;;4.33;3.00;;;;;24.60;78.66;101152.34;5039008;28;46146;-71
2022/08/22 10:47:56;;;;;;;;;3.00;3.00;;;;;24.67;78.25;101152.06;5048681;28;45394;-74
2022/08/22 10:50:31;;;;;;;;;6.67;3.67;;;;;24.74;78.02;101147.25;5048873;28;45525;-74
2022/08/22 10:55:48;;;;;;;;;3.67;2.00;;;;;25.00;79.23;101148.84;5043554;28;45289;-75
2022/08/22 10:58:25;;;;;;;;;4.33;4.00;;;;;25.02;80.38;101133.41;5068455;28;46209;-72
2022/08/22 11:01:00;;;;;;;;;4.00;2.33;;;;;25.10;79.57;101143.94;5046270;28;45517;-73
2022/08/22 11:03:51;;;;;;;;;4.33;4.33;;;;;25.11;78.63;101137.59;5062530;28;45557;-72
2022/08/22 11:06:35;;;;;;;;;6.33;3.33;;;;;25.18;78.64;101142.63;5046096;28;46459;-72
2022/08/22 11:09:25;;;;;;;;;5.00;3.00;;;;;25.26;77.97;101140.47;5047236;28;45518;-75
2022/08/22 11:11:59;;;;;;;;;5.00;2.67;;;;;25.35;79.21;101141.88;5054702;28;45532;-72
2022/08/22 11:14:45;;;;;;;;;4.67;3.00;;;;;25.44;79.20;101141.47;5049554;28;45512;-72
2022/08/22 11:17:29;;;;;;;;;4.67;4.00;;;;;25.55;80.29;101155.34;5046736;28;46650;-73
2022/08/22 11:20:00;;;;;;;;;5.00;4.00;;;;;25.68;80.27;101142.16;5042449;28;45549;-74
2022/08/22 11:22:52;;;;;;;;;3.67;3.00;;;;;25.75;78.80;101129.25;5037068;28;45472;-74
2022/08/22 11:25:26;;;;;;;;;5.00;3.00;;;;;25.85;77.25;101133.28;5041142;28;45565;-74
2022/08/22 11:28:14;;;;;;;;;3.00;3.00;;;;;25.88;77.10;101130.41;5064533;28;46721;-72
2022/08/22 11:30:42;;;;;;;;;2.00;1.00;;;;;25.92;74.99;101134.72;5051843;28;45461;-73
2022/08/22 11:33:27;;;;;;;;;3.00;3.00;;;;;25.91;75.72;101127.56;5067436;28;45476;-75
2022/08/22 11:36:26;;;;;;;;;0.00;0.00;;;;;26.00;75.70;101132.53;5049803;28;45454;-75
2022/08/22 11:39:18;;;;;;;;;3.00;3.00;;;;;26.14;74.98;101134.56;5061597;28;47304;-74
2022/08/22 11:42:12;;;;;;;;;2.00;2.00;;;;;26.25;74.06;101132.19;5043596;28;46122;-73
2022/08/22 11:44:45;;;;;;;;;4.00;3.00;;;;;26.38;72.40;101132.47;5060779;28;45329;-75
2022/08/22 11:47:14;;;;;;;;;1.67;1.67;;;;;26.54;73.65;101129.91;5055037;28;45560;-73
2022/08/22 11:49:45;;;;;;;;;1.67;1.67;;;;;26.74;72.66;101124.34;5057763;28;46965;-73
2022/08/22 11:52:20;;;;;;;;;3.67;3.67;;;;;26.89;73.33;101128.94;5066339;28;45644;-73
2022/08/22 11:54:45;;;;;;;;;2.00;2.00;;;;;26.98;72.46;101127.59;5066688;28;45646;-73
2022/08/22 11:57:15;;;;;;;;;2.00;2.00;;;;;27.05;71.58;101118.19;5062553;28;45432;-74
2022/08/22 12:00:04;;;;;;;;;4.00;3.00;;;;;27.21;71.72;101117.41;5062231;28;47505;-75
2022/08/22 12:03:08;;;;;;;;;5.00;2.67;;;;;27.41;72.00;101120.78;5061077;28;45783;-74
2022/08/22 12:06:06;;;;;;;;;4.00;3.33;;;;;27.64;72.51;101124.94;5059919;28;45733;-74
2022/08/22 12:08:34;;;;;;;;;3.33;2.00;;;;;27.88;71.94;101117.28;5065020;28;45611;-74
2022/08/22 12:11:08;;;;;;;;;5.00;2.00;;;;;28.05;70.98;101108.19;5063228;28;46387;-73
2022/08/22 12:13:44;;;;;;;;;1.00;1.00;;;;;28.27;69.80;101107.81;5062140;28;45822;-73
2022/08/22 12:16:19;;;;;;;;;2.67;2.00;;;;;28.44;69.17;101104.13;5067846;28;45359;-73
2022/08/22 12:19:03;;;;;;;;;2.00;0.67;;;;;28.55;69.04;101098.06;5063670;27;45713;-74
2022/08/22 12:21:28;;;;;;;;;1.00;1.00;;;;;28.69;68.04;101098.97;5060237;28;45790;-73
2022/08/22 12:23:54;;;;;;;;;4.00;2.00;;;;;28.85;69.08;101106.22;5062055;28;45396;-73
2022/08/22 12:26:57;;;;;;;;;1.67;0.00;;;;;29.03;66.33;101098.78;5062562;28;45439;-73